Time,TemperatureF,DewpointF,PressureIn,WindDirection,WindDirectionDegrees,WindSpeedMPH,WindSpeedGustMPH,Humidity,HourlyPrecipIn,Conditions,Clouds,dailyrainin,SoftwareType,DateUTC
2013-04-01 00:05:00,41.8,26.8,30.11,SSW,194,0.0,1.0,55,0.00,,,0.00,Wunderground v.1.15,2013-04-01 06:05:00,
2013-04-01 00:11:00,41.4,27.3,30.11,West,262,1.0,1.0,57,0.00,,,0.00,Wunderground v.1.15,2013-04-01 06:11:00,
2013-04-01 00:17:00,41.4,26.9,30.11,SSW,197,1.0,1.0,56,0.00,,,0.00,Wunderground v.1.15,2013-04-01 06:17:00,
2013-04-01 00:22:00,41.1,27.0,30.11,SSW,193,1.0,1.0,57,0.00,,,0.00,Wunderground v.1.15,2013-04-01 06:22:00,
2013-04-01 00:28:00,40.8,27.2,30.11,West,281,1.0,2.0,58,0.00,,,0.00,Wunderground v.1.15,2013-04-01 06:28:00,
2013-04-01 00:33:00,40.8,27.2,30.11,WSW,255,2.0,2.0,58,0.00,,,0.00,Wunderground v.1.15,2013-04-01 06:33:00,
2013-04-01 00:39:00,40.6,27.4,30.11,West,260,1.0,2.0,59,0.00,,,0.00,Wunderground v.1.15,2013-04-01 06:39:00,
2013-04-01 00:44:00,40.7,27.5,30.11,SW,228,2.0,2.0,59,0.00,,,0.00,Wunderground v.1.15,2013-04-01 06:44:00,
2013-04-01 00:50:00,40.6,27.4,30.11,SW,225,4.0,4.0,59,0.00,,,0.00,Wunderground v.1.15,2013-04-01 06:50:00,
2013-04-01 00:55:00,40.3,27.1,30.11,SW,233,3.0,4.0,59,0.00,,,0.00,Wunderground v.1.15,2013-04-01 06:55:00,
2013-04-01 01:01:00,39.8,27.4,30.11,SW,233,5.0,5.0,61,0.00,,,0.00,Wunderground v.1.15,2013-04-01 07:01:00,
2013-04-01 01:06:00,39.4,27.1,30.11,SSE,163,3.0,5.0,61,0.00,,,0.00,Wunderground v.1.15,2013-04-01 07:06:00,
2013-04-01 01:12:00,39.2,27.7,30.11,SW,235,3.0,4.0,63,0.00,,,0.00,Wunderground v.1.15,2013-04-01 07:12:00,
2013-04-01 01:18:00,38.2,27.1,30.11,SW,231,3.0,4.0,64,0.00,,,0.00,Wunderground v.1.15,2013-04-01 07:18:00,
2013-04-01 01:23:00,38.2,27.5,30.11,WSW,252,4.0,4.0,65,0.00,,,0.00,Wunderground v.1.15,2013-04-01 07:23:00,
2013-04-01 01:29:00,37.7,26.6,30.11,WSW,249,3.0,6.0,64,0.00,,,0.00,Wunderground v.1.15,2013-04-01 07:29:00,
2013-04-01 01:35:00,37.9,27.2,30.11,West,259,4.0,5.0,65,0.00,,,0.00,Wunderground v.1.15,2013-04-01 07:35:00,
2013-04-01 01:40:00,37.4,26.3,30.11,WSW,256,5.0,5.0,64,0.00,,,0.00,Wunderground v.1.15,2013-04-01 07:40:00,
2013-04-01 01:46:00,36.6,26.7,30.12,WSW,240,4.0,6.0,67,0.00,,,0.00,Wunderground v.1.15,2013-04-01 07:46:00,
2013-04-01 01:52:00,36.1,26.6,30.11,WSW,250,5.0,6.0,68,0.00,,,0.00,Wunderground v.1.15,2013-04-01 07:52:00,
2013-04-01 01:58:00,35.9,26.7,30.11,WSW,243,6.0,6.0,69,0.00,,,0.00,Wunderground v.1.15,2013-04-01 07:58:00,
2013-04-01 02:03:00,35.6,26.8,30.12,SW,236,4.0,6.0,70,0.00,,,0.00,Wunderground v.1.15,2013-04-01 08:03:00,
2013-04-01 02:08:00,36.0,26.5,30.11,SW,224,4.0,6.0,68,0.00,,,0.00,Wunderground v.1.15,2013-04-01 08:08:00,
2013-04-01 02:13:00,35.7,26.5,30.11,WSW,250,4.0,6.0,69,0.00,,,0.00,Wunderground v.1.15,2013-04-01 08:13:00,
2013-04-01 02:18:00,35.8,27.0,30.11,WSW,253,4.0,6.0,70,0.00,,,0.00,Wunderground v.1.15,2013-04-01 08:18:00,
2013-04-01 02:23:00,35.4,26.2,30.11,WSW,257,7.0,7.0,69,0.00,,,0.00,Wunderground v.1.15,2013-04-01 08:23:00,
2013-04-01 02:28:00,34.4,26.3,30.11,WSW,245,4.0,7.0,72,0.00,,,0.00,Wunderground v.1.15,2013-04-01 08:28:00,
2013-04-01 02:33:00,35.0,27.2,30.11,WSW,256,2.0,5.0,73,0.00,,,0.00,Wunderground v.1.15,2013-04-01 08:33:00,
2013-04-01 02:38:00,34.8,26.7,30.11,WSW,256,6.0,6.0,72,0.00,,,0.00,Wunderground v.1.15,2013-04-01 08:38:00,
2013-04-01 02:43:00,34.3,26.5,30.11,West,264,4.0,5.0,73,0.00,,,0.00,Wunderground v.1.15,2013-04-01 08:43:00,
2013-04-01 02:48:00,34.0,26.6,30.11,WSW,255,5.0,7.0,74,0.00,,,0.00,Wunderground v.1.15,2013-04-01 08:48:00,
2013-04-01 02:53:00,33.7,26.6,30.11,SSW,200,3.0,5.0,75,0.00,,,0.00,Wunderground v.1.15,2013-04-01 08:53:00,
2013-04-01 02:58:00,33.9,26.8,30.11,West,262,6.0,6.0,75,0.00,,,0.00,Wunderground v.1.15,2013-04-01 08:58:00,
2013-04-01 03:03:00,33.1,26.0,30.11,SSW,192,3.0,6.0,75,0.00,,,0.00,Wunderground v.1.15,2013-04-01 09:03:00,
2013-04-01 03:08:00,33.4,27.3,30.11,SW,236,0.0,6.0,78,0.00,,,0.00,Wunderground v.1.15,2013-04-01 09:08:00,
2013-04-01 03:13:00,34.0,27.5,30.11,WSW,247,2.0,4.0,77,0.00,,,0.00,Wunderground v.1.15,2013-04-01 09:13:00,
2013-04-01 03:18:00,34.2,27.7,30.12,West,260,4.0,5.0,77,0.00,,,0.00,Wunderground v.1.15,2013-04-01 09:18:00,
2013-04-01 03:23:00,34.5,28.0,30.12,SW,217,2.0,3.0,77,0.00,,,0.00,Wunderground v.1.15,2013-04-01 09:23:00,
2013-04-01 03:28:00,34.7,27.9,30.11,WSW,246,3.0,3.0,76,0.00,,,0.00,Wunderground v.1.15,2013-04-01 09:28:00,
2013-04-01 03:33:00,33.7,26.6,30.11,WSW,238,3.0,3.0,75,0.00,,,0.00,Wunderground v.1.15,2013-04-01 09:33:00,
2013-04-01 03:38:00,33.5,27.7,30.11,SSW,201,2.0,3.0,79,0.00,,,0.00,Wunderground v.1.15,2013-04-01 09:38:00,
2013-04-01 03:43:00,34.0,28.2,30.11,SSE,148,0.0,2.0,79,0.00,,,0.00,Wunderground v.1.15,2013-04-01 09:43:00,
2013-04-01 03:48:00,34.1,28.0,30.11,SW,233,1.0,2.0,78,0.00,,,0.00,Wunderground v.1.15,2013-04-01 09:48:00,
2013-04-01 03:53:00,33.8,27.7,30.11,WSW,257,3.0,3.0,78,0.00,,,0.00,Wunderground v.1.15,2013-04-01 09:53:00,
2013-04-01 03:58:00,33.3,27.2,30.11,WSW,256,3.0,3.0,78,0.00,,,0.00,Wunderground v.1.15,2013-04-01 09:58:00,
2013-04-01 04:03:00,33.2,27.4,30.11,SSW,204,2.0,3.0,79,0.00,,,0.00,Wunderground v.1.15,2013-04-01 10:03:00,
2013-04-01 04:08:00,32.6,27.4,30.11,WSW,256,2.0,4.0,81,0.00,,,0.00,Wunderground v.1.15,2013-04-01 10:08:00,
2013-04-01 04:13:00,32.5,27.3,30.11,WSW,252,4.0,4.0,81,0.00,,,0.00,Wunderground v.1.15,2013-04-01 10:13:00,
2013-04-01 04:18:00,32.1,26.6,30.11,SW,215,2.0,5.0,80,0.00,,,0.00,Wunderground v.1.15,2013-04-01 10:18:00,
2013-04-01 04:23:00,31.9,27.0,30.11,SW,215,3.0,3.0,82,0.00,,,0.00,Wunderground v.1.15,2013-04-01 10:23:00,
2013-04-01 04:28:00,31.9,26.7,30.10,WSW,250,4.0,4.0,81,0.00,,,0.00,Wunderground v.1.15,2013-04-01 10:28:00,
2013-04-01 04:34:00,31.1,26.2,30.11,SW,219,1.0,4.0,82,0.00,,,0.00,Wunderground v.1.15,2013-04-01 10:34:00,
2013-04-01 04:39:00,31.4,27.1,30.10,WSW,256,3.0,4.0,84,0.00,,,0.00,Wunderground v.1.15,2013-04-01 10:39:00,
2013-04-01 04:44:00,31.7,27.1,30.10,WSW,256,2.0,3.0,83,0.00,,,0.00,Wunderground v.1.15,2013-04-01 10:44:00,
2013-04-01 04:49:00,31.7,26.8,30.10,West,260,2.0,3.0,82,0.00,,,0.00,Wunderground v.1.15,2013-04-01 10:49:00,
2013-04-01 04:53:00,31.7,27.1,30.10,WSW,249,1.0,3.0,83,0.00,,,0.00,Wunderground v.1.15,2013-04-01 10:53:00,
2013-04-01 04:59:00,31.7,26.8,30.11,SW,214,2.0,3.0,82,0.00,,,0.00,Wunderground v.1.15,2013-04-01 10:59:00,
2013-04-01 05:04:00,31.7,26.8,30.10,SSW,200,1.0,3.0,82,0.00,,,0.00,Wunderground v.1.15,2013-04-01 11:04:00,
2013-04-01 05:09:00,31.4,26.2,30.10,SSW,195,2.0,3.0,81,0.00,,,0.00,Wunderground v.1.15,2013-04-01 11:09:00,
2013-04-01 05:14:00,31.2,26.3,30.11,SSW,198,2.0,3.0,82,0.00,,,0.00,Wunderground v.1.15,2013-04-01 11:14:00,
2013-04-01 05:19:00,31.1,26.2,30.11,SSW,198,2.0,3.0,82,0.00,,,0.00,Wunderground v.1.15,2013-04-01 11:19:00,
2013-04-01 05:24:00,30.8,26.2,30.11,SSW,210,2.0,4.0,83,0.00,,,0.00,Wunderground v.1.15,2013-04-01 11:24:00,
2013-04-01 05:29:00,30.4,25.9,30.11,SW,218,3.0,4.0,83,0.00,,,0.00,Wunderground v.1.15,2013-04-01 11:29:00,
2013-04-01 05:34:00,30.2,25.9,30.11,SSW,210,2.0,3.0,84,0.00,,,0.00,Wunderground v.1.15,2013-04-01 11:34:00,
2013-04-01 05:39:00,30.0,25.8,30.11,SSW,200,2.0,4.0,84,0.00,,,0.00,Wunderground v.1.15,2013-04-01 11:39:00,
2013-04-01 05:44:00,29.8,25.3,30.11,West,267,0.0,2.0,83,0.00,,,0.00,Wunderground v.1.15,2013-04-01 11:44:00,
2013-04-01 05:49:00,29.4,24.9,30.11,West,267,0.0,2.0,83,0.00,,,0.00,Wunderground v.1.15,2013-04-01 11:49:00,
2013-04-01 05:54:00,29.0,24.5,30.11,West,267,0.0,0.0,83,0.00,,,0.00,Wunderground v.1.15,2013-04-01 11:54:00,
2013-04-01 05:59:00,28.6,24.4,30.11,West,267,0.0,0.0,84,0.00,,,0.00,Wunderground v.1.15,2013-04-01 11:59:00,
2013-04-01 06:04:00,28.1,24.2,30.11,WSW,250,0.0,0.0,85,0.00,,,0.00,Wunderground v.1.15,2013-04-01 12:04:00,
2013-04-01 06:09:00,27.9,24.3,30.11,WSW,257,0.0,0.0,86,0.00,,,0.00,Wunderground v.1.15,2013-04-01 12:09:00,
2013-04-01 06:14:00,28.0,24.4,30.11,West,263,0.0,0.0,86,0.00,,,0.00,Wunderground v.1.15,2013-04-01 12:14:00,
2013-04-01 06:19:00,27.8,24.2,30.11,WSW,254,1.0,4.0,86,0.00,,,0.00,Wunderground v.1.15,2013-04-01 12:19:00,
2013-04-01 06:24:00,27.7,24.1,30.11,WSW,253,1.0,1.0,86,0.00,,,0.00,Wunderground v.1.15,2013-04-01 12:24:00,
2013-04-01 06:29:00,27.8,24.2,30.11,West,259,2.0,2.0,86,0.00,,,0.00,Wunderground v.1.15,2013-04-01 12:29:00,
2013-04-01 06:35:00,27.9,24.3,30.11,WSW,249,1.0,3.0,86,0.00,,,0.00,Wunderground v.1.15,2013-04-01 12:35:00,
2013-04-01 06:41:00,28.0,24.4,30.11,WSW,256,2.0,3.0,86,0.00,,,0.00,Wunderground v.1.15,2013-04-01 12:41:00,
2013-04-01 06:46:00,28.2,24.6,30.11,West,259,1.0,3.0,86,0.00,,,0.00,Wunderground v.1.15,2013-04-01 12:46:00,
2013-04-01 06:51:00,28.5,24.8,30.11,WSW,257,1.0,2.0,86,0.00,,,0.00,Wunderground v.1.15,2013-04-01 12:51:00,
2013-04-01 06:56:00,28.4,24.5,30.11,West,272,1.0,2.0,85,0.00,,,0.00,Wunderground v.1.15,2013-04-01 12:56:00,
2013-04-01 07:01:00,28.3,24.4,30.11,WSW,250,0.0,1.0,85,0.00,,,0.00,Wunderground v.1.15,2013-04-01 13:01:00,
2013-04-01 07:06:00,28.2,24.6,30.11,WSW,253,1.0,2.0,86,0.00,,,0.00,Wunderground v.1.15,2013-04-01 13:06:00,
2013-04-01 07:12:00,28.3,24.4,30.11,West,269,2.0,2.0,85,0.00,,,0.00,Wunderground v.1.15,2013-04-01 13:12:00,
2013-04-01 07:17:00,28.3,24.6,30.12,WSW,257,1.0,2.0,86,0.00,,,0.00,Wunderground v.1.15,2013-04-01 13:17:00,
2013-04-01 07:22:00,28.3,24.4,30.12,WSW,256,1.0,2.0,85,0.00,,,0.00,Wunderground v.1.15,2013-04-01 13:22:00,
2013-04-01 07:27:00,28.4,24.5,30.12,WSW,257,1.0,2.0,85,0.00,,,0.00,Wunderground v.1.15,2013-04-01 13:27:00,
2013-04-01 07:32:00,28.5,24.6,30.12,WSW,257,1.0,1.0,85,0.00,,,0.00,Wunderground v.1.15,2013-04-01 13:32:00,
2013-04-01 07:37:00,29.0,25.1,30.12,WSW,257,0.0,1.0,85,0.00,,,0.00,Wunderground v.1.15,2013-04-01 13:37:00,
2013-04-01 07:42:00,30.0,26.3,30.12,WSW,257,0.0,0.0,86,0.00,,,0.00,Wunderground v.1.15,2013-04-01 13:42:00,
2013-04-01 07:47:00,31.4,27.1,30.12,WSW,257,0.0,0.0,84,0.00,,,0.00,Wunderground v.1.15,2013-04-01 13:47:00,
2013-04-01 07:53:00,32.2,26.1,30.12,West,260,0.0,1.0,78,0.00,,,0.00,Wunderground v.1.15,2013-04-01 13:53:00,
2013-04-01 07:58:00,31.7,25.3,30.12,East,86,1.0,2.0,77,0.00,,,0.00,Wunderground v.1.15,2013-04-01 13:58:00,
2013-04-01 08:03:00,31.7,25.9,30.12,East,86,0.0,1.0,79,0.00,,,0.00,Wunderground v.1.15,2013-04-01 14:03:00,
2013-04-01 08:08:00,32.1,26.3,30.12,ENE,77,1.0,3.0,79,0.00,,,0.00,Wunderground v.1.15,2013-04-01 14:08:00,
2013-04-01 08:13:00,32.4,26.3,30.12,ENE,78,1.0,2.0,78,0.00,,,0.00,Wunderground v.1.15,2013-04-01 14:13:00,
2013-04-01 08:18:00,32.5,26.4,30.12,NE,40,2.0,4.0,78,0.00,,,0.00,Wunderground v.1.15,2013-04-01 14:18:00,
2013-04-01 08:23:00,32.2,26.1,30.12,East,81,1.0,4.0,78,0.00,,,0.00,Wunderground v.1.15,2013-04-01 14:23:00,
2013-04-01 08:28:00,32.7,26.9,30.11,East,79,3.0,4.0,79,0.00,,,0.00,Wunderground v.1.15,2013-04-01 14:28:00,
2013-04-01 08:33:00,32.7,26.6,30.12,ENE,76,1.0,3.0,78,0.00,,,0.00,Wunderground v.1.15,2013-04-01 14:33:00,
2013-04-01 08:38:00,33.1,27.0,30.11,NE,34,1.0,3.0,78,0.00,,,0.00,Wunderground v.1.15,2013-04-01 14:38:00,
2013-04-01 08:43:00,33.2,26.8,30.11,East,81,2.0,4.0,77,0.00,,,0.00,Wunderground v.1.15,2013-04-01 14:43:00,
2013-04-01 08:48:00,33.0,26.6,30.11,NE,43,2.0,4.0,77,0.00,,,0.00,Wunderground v.1.15,2013-04-01 14:48:00,
2013-04-01 08:54:00,32.8,26.4,30.11,NE,41,3.0,3.0,77,0.00,,,0.00,Wunderground v.1.15,2013-04-01 14:54:00,
2013-04-01 09:00:00,32.7,26.6,30.11,ENE,71,1.0,3.0,78,0.00,,,0.00,Wunderground v.1.15,2013-04-01 15:00:00,
2013-04-01 09:05:00,32.8,27.0,30.11,NNE,26,0.0,5.0,79,0.00,,,0.00,Wunderground v.1.15,2013-04-01 15:05:00,
2013-04-01 09:10:00,33.0,27.5,30.11,East,96,3.0,3.0,80,0.00,,,0.00,Wunderground v.1.15,2013-04-01 15:10:00,
2013-04-01 09:15:00,33.5,28.0,30.11,East,82,1.0,4.0,80,0.00,,,0.00,Wunderground v.1.15,2013-04-01 15:15:00,
2013-04-01 09:20:00,33.7,27.9,30.11,East,91,2.0,4.0,79,0.00,,,0.00,Wunderground v.1.15,2013-04-01 15:20:00,
2013-04-01 09:25:00,34.3,28.5,30.11,East,97,3.0,6.0,79,0.00,,,0.00,Wunderground v.1.15,2013-04-01 15:25:00,
2013-04-01 09:30:00,34.5,28.3,30.11,East,84,1.0,3.0,78,0.00,,,0.00,Wunderground v.1.15,2013-04-01 15:30:00,
2013-04-01 09:35:00,35.2,28.7,30.11,East,101,2.0,4.0,77,0.00,,,0.00,Wunderground v.1.15,2013-04-01 15:35:00,
2013-04-01 09:41:00,35.7,29.2,30.10,NE,40,4.0,5.0,77,0.00,,,0.00,Wunderground v.1.15,2013-04-01 15:41:00,
2013-04-01 09:46:00,35.9,29.1,30.10,NE,40,5.0,6.0,76,0.00,,,0.00,Wunderground v.1.15,2013-04-01 15:46:00,
2013-04-01 09:51:00,36.0,28.8,30.10,ESE,123,2.0,5.0,75,0.00,,,0.00,Wunderground v.1.15,2013-04-01 15:51:00,
2013-04-01 09:56:00,36.3,29.1,30.10,ENE,59,4.0,6.0,75,0.00,,,0.00,Wunderground v.1.15,2013-04-01 15:56:00,
2013-04-01 10:01:00,36.4,28.9,30.10,ENE,75,6.0,6.0,74,0.00,,,0.00,Wunderground v.1.15,2013-04-01 16:01:00,
2013-04-01 10:06:00,36.5,29.0,30.10,East,84,4.0,7.0,74,0.00,,,0.00,Wunderground v.1.15,2013-04-01 16:06:00,
2013-04-01 10:11:00,36.5,29.3,30.10,ENE,76,4.0,7.0,75,0.00,,,0.00,Wunderground v.1.15,2013-04-01 16:11:00,
2013-04-01 10:16:00,36.8,29.6,30.10,ESE,107,1.0,7.0,75,0.00,,,0.00,Wunderground v.1.15,2013-04-01 16:16:00,
2013-04-01 10:21:00,36.9,29.4,30.10,NNE,30,3.0,5.0,74,0.00,,,0.00,Wunderground v.1.15,2013-04-01 16:21:00,
2013-04-01 10:26:00,37.0,29.1,30.10,ENE,72,2.0,5.0,73,0.00,,,0.00,Wunderground v.1.15,2013-04-01 16:26:00,
2013-04-01 10:31:00,37.6,30.1,30.10,NE,47,3.0,5.0,74,0.00,,,0.00,Wunderground v.1.15,2013-04-01 16:31:00,
2013-04-01 10:37:00,37.9,29.3,30.10,East,88,0.0,6.0,71,0.00,,,0.00,Wunderground v.1.15,2013-04-01 16:37:00,
2013-04-01 10:42:00,38.0,29.1,30.10,East,79,1.0,4.0,70,0.00,,,0.00,Wunderground v.1.15,2013-04-01 16:42:00,
2013-04-01 10:47:00,38.5,29.9,30.10,ENE,76,2.0,6.0,71,0.00,,,0.00,Wunderground v.1.15,2013-04-01 16:47:00,
2013-04-01 10:52:00,39.4,29.7,30.09,ENE,72,5.0,5.0,68,0.00,,,0.00,Wunderground v.1.15,2013-04-01 16:52:00,
2013-04-01 10:57:00,39.6,29.9,30.09,ENE,77,4.0,7.0,68,0.00,,,0.00,Wunderground v.1.15,2013-04-01 16:57:00,
2013-04-01 11:02:00,39.3,29.3,30.09,East,81,2.0,7.0,67,0.00,,,0.00,Wunderground v.1.15,2013-04-01 17:02:00,
2013-04-01 11:07:00,39.3,30.0,30.09,NNE,20,4.0,7.0,69,0.00,,,0.00,Wunderground v.1.15,2013-04-01 17:07:00,
2013-04-01 11:12:00,39.8,29.7,30.09,East,93,5.0,6.0,67,0.00,,,0.00,Wunderground v.1.15,2013-04-01 17:12:00,
2013-04-01 11:17:00,40.2,30.8,30.09,NNE,30,2.0,6.0,69,0.00,,,0.00,Wunderground v.1.15,2013-04-01 17:17:00,
2013-04-01 11:22:00,40.7,29.8,30.09,East,94,1.0,8.0,65,0.00,,,0.00,Wunderground v.1.15,2013-04-01 17:22:00,
2013-04-01 11:27:00,40.8,30.3,30.09,ENE,58,4.0,8.0,66,0.00,,,0.00,Wunderground v.1.15,2013-04-01 17:27:00,
2013-04-01 11:32:00,40.6,29.7,30.08,ENE,63,5.0,6.0,65,0.00,,,0.00,Wunderground v.1.15,2013-04-01 17:32:00,
2013-04-01 11:38:00,40.0,29.6,30.09,East,99,3.0,6.0,66,0.00,,,0.00,Wunderground v.1.15,2013-04-01 17:38:00,
2013-04-01 11:44:00,40.1,30.0,30.08,ESE,121,2.0,6.0,67,0.00,,,0.00,Wunderground v.1.15,2013-04-01 17:44:00,
2013-04-01 11:49:00,40.5,30.4,30.08,East,82,5.0,6.0,67,0.00,,,0.00,Wunderground v.1.15,2013-04-01 17:49:00,
2013-04-01 11:54:00,40.5,30.0,30.08,East,82,3.0,5.0,66,0.00,,,0.00,Wunderground v.1.15,2013-04-01 17:54:00,
2013-04-01 11:59:00,40.9,30.4,30.08,ENE,67,4.0,9.0,66,0.00,,,0.00,Wunderground v.1.15,2013-04-01 17:59:00,
2013-04-01 12:04:00,40.9,30.4,30.08,NNW,347,4.0,7.0,66,0.00,,,0.00,Wunderground v.1.15,2013-04-01 18:04:00,
2013-04-01 12:09:00,41.2,30.3,30.08,NE,50,2.0,7.0,65,0.00,,,0.00,Wunderground v.1.15,2013-04-01 18:09:00,
2013-04-01 12:14:00,41.7,30.8,30.08,East,89,6.0,6.0,65,0.00,,,0.00,Wunderground v.1.15,2013-04-01 18:14:00,
2013-04-01 12:19:00,41.4,30.1,30.08,East,84,2.0,6.0,64,0.00,,,0.00,Wunderground v.1.15,2013-04-01 18:19:00,
2013-04-01 12:24:00,41.2,29.9,30.08,East,99,4.0,6.0,64,0.00,,,0.00,Wunderground v.1.15,2013-04-01 18:24:00,
2013-04-01 12:30:00,41.3,30.4,30.08,East,95,3.0,3.0,65,0.00,,,0.00,Wunderground v.1.15,2013-04-01 18:30:00,
2013-04-01 12:37:00,41.5,30.6,30.08,East,92,0.0,6.0,65,0.00,,,0.00,Wunderground v.1.15,2013-04-01 18:37:00,
2013-04-01 12:42:00,41.9,30.6,30.08,West,266,1.0,2.0,64,0.00,,,0.00,Wunderground v.1.15,2013-04-01 18:42:00,
2013-04-01 12:47:00,42.3,30.6,30.08,ESE,122,0.0,5.0,63,0.00,,,0.00,Wunderground v.1.15,2013-04-01 18:47:00,
2013-04-01 12:52:00,42.2,30.5,30.08,ENE,75,1.0,3.0,63,0.00,,,0.00,Wunderground v.1.15,2013-04-01 18:52:00,
2013-04-01 12:57:00,42.2,30.1,30.07,NW,304,0.0,4.0,62,0.00,,,0.00,Wunderground v.1.15,2013-04-01 18:57:00,
2013-04-01 13:03:00,42.4,30.3,30.07,NW,321,0.0,3.0,62,0.00,,,0.00,Wunderground v.1.15,2013-04-01 19:03:00,
2013-04-01 13:08:00,43.0,30.5,30.07,NW,316,1.0,4.0,61,0.00,,,0.00,Wunderground v.1.15,2013-04-01 19:08:00,
2013-04-01 13:13:00,43.2,30.6,30.07,ESE,112,5.0,5.0,61,0.00,,,0.00,Wunderground v.1.15,2013-04-01 19:13:00,
2013-04-01 13:18:00,43.6,31.8,30.07,SSE,148,0.0,5.0,63,0.00,,,0.00,Wunderground v.1.15,2013-04-01 19:18:00,
2013-04-01 13:23:00,44.1,31.5,30.07,East,99,2.0,3.0,61,0.00,,,0.00,Wunderground v.1.15,2013-04-01 19:23:00,
2013-04-01 13:28:00,44.1,31.5,30.07,East,98,1.0,3.0,61,0.00,,,0.00,Wunderground v.1.15,2013-04-01 19:28:00,
2013-04-01 13:33:00,44.8,32.2,30.07,ESE,108,1.0,1.0,61,0.00,,,0.00,Wunderground v.1.15,2013-04-01 19:33:00,
2013-04-01 13:38:00,45.6,32.1,30.06,WSW,252,0.0,3.0,59,0.00,,,0.00,Wunderground v.1.15,2013-04-01 19:38:00,
2013-04-01 13:44:00,45.6,31.7,30.06,East,81,2.0,5.0,58,0.00,,,0.00,Wunderground v.1.15,2013-04-01 19:44:00,
2013-04-01 13:49:00,45.3,31.8,30.06,East,88,3.0,5.0,59,0.00,,,0.00,Wunderground v.1.15,2013-04-01 19:49:00,
2013-04-01 13:54:00,45.7,32.2,30.06,South,173,0.0,3.0,59,0.00,,,0.00,Wunderground v.1.15,2013-04-01 19:54:00,
2013-04-01 13:59:00,46.2,31.8,30.06,NE,40,6.0,8.0,57,0.00,,,0.00,Wunderground v.1.15,2013-04-01 19:59:00,
2013-04-01 14:04:00,45.8,32.7,30.06,NE,54,5.0,5.0,60,0.00,,,0.00,Wunderground v.1.15,2013-04-01 20:04:00,
2013-04-01 14:09:00,46.0,32.0,30.05,North,351,0.0,5.0,58,0.00,,,0.00,Wunderground v.1.15,2013-04-01 20:09:00,
2013-04-01 14:14:00,46.7,32.3,30.05,NE,46,6.0,7.0,57,0.00,,,0.00,Wunderground v.1.15,2013-04-01 20:14:00,
2013-04-01 14:19:00,46.3,31.9,30.05,NE,39,1.0,7.0,57,0.00,,,0.00,Wunderground v.1.15,2013-04-01 20:19:00,
2013-04-01 14:24:00,46.4,32.4,30.05,NNW,330,4.0,8.0,58,0.00,,,0.00,Wunderground v.1.15,2013-04-01 20:24:00,
2013-04-01 14:29:00,46.5,32.1,30.05,South,179,2.0,8.0,57,0.00,,,0.00,Wunderground v.1.15,2013-04-01 20:29:00,
2013-04-01 14:34:00,46.5,32.5,30.05,ENE,75,4.0,5.0,58,0.00,,,0.00,Wunderground v.1.15,2013-04-01 20:34:00,
2013-04-01 14:39:00,46.5,32.1,30.04,NNE,30,2.0,6.0,57,0.00,,,0.00,Wunderground v.1.15,2013-04-01 20:39:00,
2013-04-01 14:44:00,46.8,32.4,30.04,East,79,5.0,8.0,57,0.00,,,0.00,Wunderground v.1.15,2013-04-01 20:44:00,
2013-04-01 14:49:00,46.9,32.4,30.04,NE,34,1.0,9.0,57,0.00,,,0.00,Wunderground v.1.15,2013-04-01 20:49:00,
2013-04-01 14:54:00,47.4,32.5,30.04,North,351,3.0,6.0,56,0.00,,,0.00,Wunderground v.1.15,2013-04-01 20:54:00,
2013-04-01 15:00:00,47.5,32.6,30.04,NNW,330,3.0,3.0,56,0.00,,,0.00,Wunderground v.1.15,2013-04-01 21:00:00,
2013-04-01 15:05:00,47.4,32.5,30.04,East,83,4.0,8.0,56,0.00,,,0.00,Wunderground v.1.15,2013-04-01 21:05:00,
2013-04-01 15:10:00,47.0,32.1,30.03,East,99,2.0,5.0,56,0.00,,,0.00,Wunderground v.1.15,2013-04-01 21:10:00,
2013-04-01 15:15:00,47.3,32.8,30.03,ESE,110,4.0,5.0,57,0.00,,,0.00,Wunderground v.1.15,2013-04-01 21:15:00,
2013-04-01 15:21:00,47.6,32.7,30.04,SE,132,1.0,4.0,56,0.00,,,0.00,Wunderground v.1.15,2013-04-01 21:21:00,
2013-04-01 15:26:00,48.4,33.4,30.03,ENE,67,3.0,4.0,56,0.00,,,0.00,Wunderground v.1.15,2013-04-01 21:26:00,
2013-04-01 15:31:00,48.9,33.0,30.03,NNE,27,3.0,8.0,54,0.00,,,0.00,Wunderground v.1.15,2013-04-01 21:31:00,
2013-04-01 15:36:00,48.6,32.7,30.03,East,91,4.0,8.0,54,0.00,,,0.00,Wunderground v.1.15,2013-04-01 21:36:00,
2013-04-01 15:41:00,48.6,32.7,30.03,ENE,71,3.0,6.0,54,0.00,,,0.00,Wunderground v.1.15,2013-04-01 21:41:00,
2013-04-01 15:46:00,48.7,32.8,30.03,South,187,1.0,7.0,54,0.00,,,0.00,Wunderground v.1.15,2013-04-01 21:46:00,
2013-04-01 15:51:00,49.6,32.7,30.03,East,79,3.0,5.0,52,0.00,,,0.00,Wunderground v.1.15,2013-04-01 21:51:00,
2013-04-01 15:56:00,50.0,33.1,30.03,East,79,2.0,5.0,52,0.00,,,0.00,Wunderground v.1.15,2013-04-01 21:56:00,
2013-04-01 16:02:00,50.9,33.4,30.02,ENE,68,7.0,7.0,51,0.00,,,0.00,Wunderground v.1.15,2013-04-01 22:02:00,
2013-04-01 16:07:00,50.6,32.6,30.02,ENE,71,5.0,9.0,50,0.00,,,0.00,Wunderground v.1.15,2013-04-01 22:07:00,
2013-04-01 16:13:00,49.6,32.2,30.03,East,94,6.0,9.0,51,0.00,,,0.00,Wunderground v.1.15,2013-04-01 22:13:00,
2013-04-01 16:18:00,49.1,32.7,30.03,ESE,117,3.0,9.0,53,0.00,,,0.00,Wunderground v.1.15,2013-04-01 22:18:00,
2013-04-01 16:23:00,49.0,32.6,30.03,ENE,71,2.0,5.0,53,0.00,,,0.00,Wunderground v.1.15,2013-04-01 22:23:00,
2013-04-01 16:28:00,48.9,33.0,30.03,East,89,3.0,5.0,54,0.00,,,0.00,Wunderground v.1.15,2013-04-01 22:28:00,
2013-04-01 16:33:00,49.0,32.6,30.03,ESE,110,2.0,7.0,53,0.00,,,0.00,Wunderground v.1.15,2013-04-01 22:33:00,
2013-04-01 16:38:00,49.1,32.7,30.03,East,93,0.0,7.0,53,0.00,,,0.00,Wunderground v.1.15,2013-04-01 22:38:00,
2013-04-01 16:43:00,49.2,32.8,30.03,ESE,115,2.0,6.0,53,0.00,,,0.00,Wunderground v.1.15,2013-04-01 22:43:00,
2013-04-01 16:48:00,49.1,32.2,30.04,ESE,111,4.0,6.0,52,0.00,,,0.00,Wunderground v.1.15,2013-04-01 22:48:00,
2013-04-01 16:53:00,49.1,33.2,30.03,East,101,0.0,3.0,54,0.00,,,0.00,Wunderground v.1.15,2013-04-01 22:53:00,
2013-04-01 16:58:00,49.4,33.4,30.04,ESE,115,3.0,5.0,54,0.00,,,0.00,Wunderground v.1.15,2013-04-01 22:58:00,
2013-04-01 17:03:00,49.2,32.8,30.04,SE,146,2.0,4.0,53,0.00,,,0.00,Wunderground v.1.15,2013-04-01 23:03:00,
2013-04-01 17:08:00,49.1,32.7,30.04,East,93,4.0,4.0,53,0.00,,,0.00,Wunderground v.1.15,2013-04-01 23:08:00,
2013-04-01 17:13:00,48.9,33.4,30.04,ESE,110,3.0,4.0,55,0.00,,,0.00,Wunderground v.1.15,2013-04-01 23:13:00,
2013-04-01 17:18:00,49.1,33.2,30.04,SE,124,1.0,4.0,54,0.00,,,0.00,Wunderground v.1.15,2013-04-01 23:18:00,
2013-04-01 17:23:00,49.1,32.7,30.04,SE,132,1.0,4.0,53,0.00,,,0.00,Wunderground v.1.15,2013-04-01 23:23:00,
2013-04-01 17:28:00,48.8,32.9,30.04,East,95,1.0,7.0,54,0.00,,,0.00,Wunderground v.1.15,2013-04-01 23:28:00,
2013-04-01 17:33:00,48.9,33.0,30.04,ENE,78,3.0,5.0,54,0.00,,,0.00,Wunderground v.1.15,2013-04-01 23:33:00,
2013-04-01 17:38:00,48.7,32.8,30.04,East,90,4.0,8.0,54,0.00,,,0.00,Wunderground v.1.15,2013-04-01 23:38:00,
2013-04-01 17:44:00,48.4,33.0,30.04,East,101,4.0,5.0,55,0.00,,,0.00,Wunderground v.1.15,2013-04-01 23:44:00,
2013-04-01 17:50:00,48.3,32.9,30.04,East,92,3.0,4.0,55,0.00,,,0.00,Wunderground v.1.15,2013-04-01 23:50:00,
2013-04-01 17:55:00,48.0,33.0,30.04,NNE,33,4.0,6.0,56,0.00,,,0.00,Wunderground v.1.15,2013-04-01 23:55:00,
2013-04-01 18:00:00,47.9,33.4,30.04,East,92,4.0,4.0,57,0.00,,,0.00,Wunderground v.1.15,2013-04-02 00:00:00,
2013-04-01 18:05:00,48.0,33.5,30.04,SE,141,3.0,6.0,57,0.00,,,0.00,Wunderground v.1.15,2013-04-02 00:05:00,
2013-04-01 18:10:00,47.9,32.9,30.04,East,96,7.0,7.0,56,0.00,,,0.00,Wunderground v.1.15,2013-04-02 00:10:00,
2013-04-01 18:15:00,47.7,33.2,30.04,East,101,3.0,7.0,57,0.00,,,0.00,Wunderground v.1.15,2013-04-02 00:15:00,
2013-04-01 18:20:00,47.6,33.1,30.05,ENE,63,5.0,5.0,57,0.00,,,0.00,Wunderground v.1.15,2013-04-02 00:20:00,
2013-04-01 18:25:00,47.5,33.0,30.05,East,101,4.0,7.0,57,0.00,,,0.00,Wunderground v.1.15,2013-04-02 00:25:00,
2013-04-01 18:30:00,47.3,33.3,30.05,ESE,110,4.0,8.0,58,0.00,,,0.00,Wunderground v.1.15,2013-04-02 00:30:00,
2013-04-01 18:35:00,47.0,33.0,30.05,ENE,78,6.0,9.0,58,0.00,,,0.00,Wunderground v.1.15,2013-04-02 00:35:00,
2013-04-01 18:40:00,46.7,33.1,30.05,East,99,4.0,5.0,59,0.00,,,0.00,Wunderground v.1.15,2013-04-02 00:40:00,
2013-04-01 18:45:00,46.4,32.8,30.06,ESE,118,5.0,9.0,59,0.00,,,0.00,Wunderground v.1.15,2013-04-02 00:45:00,
2013-04-01 18:50:00,46.1,32.6,30.06,SE,136,1.0,5.0,59,0.00,,,0.00,Wunderground v.1.15,2013-04-02 00:50:00,
2013-04-01 18:55:00,45.8,32.7,30.06,East,84,4.0,7.0,60,0.00,,,0.00,Wunderground v.1.15,2013-04-02 00:55:00,
2013-04-01 19:00:00,45.4,32.3,30.06,ESE,109,7.0,9.0,60,0.00,,,0.00,Wunderground v.1.15,2013-04-02 01:00:00,
2013-04-01 19:05:00,45.1,32.0,30.07,East,97,4.0,11.0,60,0.00,,,0.00,Wunderground v.1.15,2013-04-02 01:05:00,
2013-04-01 19:11:00,44.7,31.7,30.07,ESE,112,7.0,8.0,60,0.00,,,0.00,Wunderground v.1.15,2013-04-02 01:11:00,
2013-04-01 19:16:00,44.5,31.5,30.07,East,99,2.0,12.0,60,0.00,,,0.00,Wunderground v.1.15,2013-04-02 01:16:00,
2013-04-01 19:21:00,44.4,31.4,30.08,ESE,103,1.0,5.0,60,0.00,,,0.00,Wunderground v.1.15,2013-04-02 01:21:00,
2013-04-01 19:26:00,44.2,31.6,30.08,East,84,3.0,6.0,61,0.00,,,0.00,Wunderground v.1.15,2013-04-02 01:26:00,
2013-04-01 19:31:00,44.1,31.5,30.08,SSW,195,1.0,4.0,61,0.00,,,0.00,Wunderground v.1.15,2013-04-02 01:31:00,
2013-04-01 19:36:00,43.9,31.7,30.09,SSW,198,2.0,4.0,62,0.00,,,0.00,Wunderground v.1.15,2013-04-02 01:36:00,
2013-04-01 19:41:00,43.9,31.7,30.09,ESE,122,2.0,3.0,62,0.00,,,0.00,Wunderground v.1.15,2013-04-02 01:41:00,
2013-04-01 19:47:00,43.8,32.0,30.10,SSW,210,4.0,7.0,63,0.00,,,0.00,Wunderground v.1.15,2013-04-02 01:47:00,
2013-04-01 19:52:00,43.7,31.9,30.11,SSE,160,2.0,5.0,63,0.00,,,0.00,Wunderground v.1.15,2013-04-02 01:52:00,
2013-04-01 19:57:00,43.7,32.3,30.12,SE,134,3.0,5.0,64,0.00,,,0.00,Wunderground v.1.15,2013-04-02 01:57:00,
2013-04-01 20:02:00,43.6,32.2,30.11,SE,135,3.0,4.0,64,0.00,,,0.00,Wunderground v.1.15,2013-04-02 02:02:00,
2013-04-01 20:07:00,43.4,32.0,30.11,ESE,103,2.0,8.0,64,0.00,,,0.00,Wunderground v.1.15,2013-04-02 02:07:00,
2013-04-01 20:12:00,43.2,32.2,30.10,East,96,6.0,8.0,65,0.00,,,0.00,Wunderground v.1.15,2013-04-02 02:12:00,
2013-04-01 20:17:00,43.0,32.0,30.11,East,79,2.0,8.0,65,0.00,,,0.00,Wunderground v.1.15,2013-04-02 02:17:00,
2013-04-01 20:22:00,42.6,32.4,30.12,WSW,243,2.0,5.0,67,0.00,,,0.00,Wunderground v.1.15,2013-04-02 02:22:00,
2013-04-01 20:27:00,41.7,33.0,30.13,East,91,2.0,5.0,71,0.20,,,0.02,Wunderground v.1.15,2013-04-02 02:27:00,
2013-04-01 20:32:00,40.8,33.2,30.12,NNE,23,2.0,3.0,74,0.15,,,0.03,Wunderground v.1.15,2013-04-02 02:32:00,
2013-04-01 20:37:00,40.3,34.0,30.12,NNE,23,0.0,3.0,78,0.07,,,0.03,Wunderground v.1.15,2013-04-02 02:37:00,
2013-04-01 20:43:00,40.0,34.0,30.13,ENE,71,0.0,1.0,79,0.04,,,0.03,Wunderground v.1.15,2013-04-02 02:43:00,
2013-04-01 20:48:00,39.6,33.9,30.13,ENE,71,0.0,1.0,80,0.00,,,0.03,Wunderground v.1.15,2013-04-02 02:48:00,
2013-04-01 20:53:00,39.4,33.7,30.13,ESE,106,0.0,1.0,80,0.00,,,0.03,Wunderground v.1.15,2013-04-02 02:53:00,
2013-04-01 20:58:00,39.4,34.1,30.14,ESE,102,0.0,1.0,81,0.00,,,0.03,Wunderground v.1.15,2013-04-02 02:58:00,
2013-04-01 21:03:00,39.4,33.7,30.14,SSE,165,0.0,4.0,80,0.00,,,0.03,Wunderground v.1.15,2013-04-02 03:03:00,
2013-04-01 21:08:00,39.5,33.8,30.14,SSE,154,0.0,4.0,80,0.00,,,0.03,Wunderground v.1.15,2013-04-02 03:08:00,
2013-04-01 21:14:00,39.5,34.5,30.15,West,266,1.0,1.0,82,0.00,,,0.03,Wunderground v.1.15,2013-04-02 03:14:00,
2013-04-01 21:20:00,39.5,35.4,30.15,West,277,2.0,2.0,85,0.00,,,0.03,Wunderground v.1.15,2013-04-02 03:20:00,
2013-04-01 21:25:00,39.4,35.6,30.15,West,277,1.0,2.0,86,0.00,,,0.03,Wunderground v.1.15,2013-04-02 03:25:00,
2013-04-01 21:30:00,39.3,35.2,30.16,West,277,2.0,2.0,85,0.00,,,0.03,Wunderground v.1.15,2013-04-02 03:30:00,
2013-04-01 21:35:00,39.3,35.2,30.16,WNW,294,0.0,2.0,85,0.00,,,0.03,Wunderground v.1.15,2013-04-02 03:35:00,
2013-04-01 21:40:00,39.3,35.2,30.15,WNW,294,0.0,1.0,85,0.00,,,0.03,Wunderground v.1.15,2013-04-02 03:40:00,
2013-04-01 21:46:00,39.2,34.8,30.16,SE,129,0.0,1.0,84,0.00,,,0.03,Wunderground v.1.15,2013-04-02 03:46:00,
2013-04-01 21:51:00,39.1,34.7,30.16,SE,130,0.0,0.0,84,0.00,,,0.04,Wunderground v.1.15,2013-04-02 03:51:00,
2013-04-01 21:56:00,39.1,34.7,30.16,SE,134,1.0,1.0,84,0.00,,,0.04,Wunderground v.1.15,2013-04-02 03:56:00,
2013-04-01 22:00:00,39.0,34.6,30.16,NW,307,2.0,2.0,84,0.00,,,0.04,Wunderground v.1.15,2013-04-02 04:00:00,
2013-04-01 22:01:00,39.0,34.6,30.16,WNW,290,2.0,2.0,84,0.00,,,0.04,Wunderground v.1.15,2013-04-02 04:01:00,
2013-04-01 22:06:00,38.8,34.4,30.16,NW,308,2.0,3.0,84,0.00,,,0.04,Wunderground v.1.15,2013-04-02 04:06:00,
2013-04-01 22:11:00,38.6,34.5,30.16,NNW,328,1.0,2.0,85,0.00,,,0.04,Wunderground v.1.15,2013-04-02 04:11:00,
2013-04-01 22:16:00,38.5,34.4,30.15,NNW,347,2.0,4.0,85,0.00,,,0.04,Wunderground v.1.15,2013-04-02 04:16:00,
2013-04-01 22:21:00,38.5,34.7,30.15,North,356,3.0,4.0,86,0.00,,,0.04,Wunderground v.1.15,2013-04-02 04:21:00,
2013-04-01 22:26:00,38.4,34.9,30.15,NW,321,3.0,5.0,87,0.00,,,0.04,Wunderground v.1.15,2013-04-02 04:26:00,
2013-04-01 22:32:00,38.3,34.8,30.15,NW,315,3.0,3.0,87,0.00,,,0.04,Wunderground v.1.15,2013-04-02 04:32:00,
2013-04-01 22:37:00,38.3,34.8,30.15,NNW,345,3.0,4.0,87,0.00,,,0.04,Wunderground v.1.15,2013-04-02 04:37:00,
2013-04-01 22:42:00,38.2,35.0,30.15,NW,315,3.0,3.0,88,0.00,,,0.04,Wunderground v.1.15,2013-04-02 04:42:00,
2013-04-01 22:47:00,38.1,34.9,30.15,NW,311,3.0,3.0,88,0.00,,,0.04,Wunderground v.1.15,2013-04-02 04:47:00,
2013-04-01 22:52:00,38.0,35.0,30.15,NW,311,3.0,3.0,89,0.00,,,0.04,Wunderground v.1.15,2013-04-02 04:52:00,
2013-04-01 22:57:00,37.9,34.7,30.15,NW,323,2.0,5.0,88,0.00,,,0.04,Wunderground v.1.15,2013-04-02 04:57:00,
2013-04-01 23:02:00,37.9,34.7,30.15,NW,314,3.0,4.0,88,0.00,,,0.04,Wunderground v.1.15,2013-04-02 05:02:00,
2013-04-01 23:07:00,37.9,34.7,30.15,NW,318,4.0,5.0,88,0.00,,,0.04,Wunderground v.1.15,2013-04-02 05:07:00,
2013-04-01 23:12:00,38.0,34.8,30.15,NW,309,4.0,4.0,88,0.00,,,0.04,Wunderground v.1.15,2013-04-02 05:12:00,
2013-04-01 23:17:00,38.0,34.8,30.15,NNW,340,2.0,4.0,88,0.00,,,0.04,Wunderground v.1.15,2013-04-02 05:17:00,
2013-04-01 23:22:00,37.9,34.4,30.15,NNW,333,2.0,3.0,87,0.00,,,0.04,Wunderground v.1.15,2013-04-02 05:22:00,
2013-04-01 23:27:00,37.9,34.7,30.14,NNE,33,3.0,4.0,88,0.00,,,0.04,Wunderground v.1.15,2013-04-02 05:27:00,
2013-04-01 23:32:00,37.8,34.3,30.14,North,1,2.0,3.0,87,0.00,,,0.04,Wunderground v.1.15,2013-04-02 05:32:00,
2013-04-01 23:37:00,37.8,34.3,30.14,North,8,2.0,3.0,87,0.00,,,0.04,Wunderground v.1.15,2013-04-02 05:37:00,
2013-04-01 23:42:00,37.8,34.3,30.14,North,9,3.0,3.0,87,0.00,,,0.04,Wunderground v.1.15,2013-04-02 05:42:00,
2013-04-01 23:47:00,37.9,34.1,30.14,North,351,2.0,3.0,86,0.00,,,0.04,Wunderground v.1.15,2013-04-02 05:47:00,
2013-04-01 23:52:00,37.9,34.1,30.15,NW,314,1.0,2.0,86,0.00,,,0.04,Wunderground v.1.15,2013-04-02 05:52:00,
2013-04-01 23:57:00,37.9,34.1,30.15,NW,314,4.0,4.0,86,0.00,,,0.04,Wunderground v.1.15,2013-04-02 05:57:00,